WZZ1432 EPWA-EPKT
Flight info
| Callsign | WZZ1432 |
|---|---|
| Flight time | N/A |
| Altitude | 24000 |
| Route | EVINA M66 KUKAM |
| Aircraft | A20N/M-SDE2E3FGHIRWXY/LB1 |
Departure
| Time | 2026-05-04 19:28 |
|---|---|
| Airport | Warsaw Chopin Airport (EPWA) |
Arrival
| Time | N/A |
|---|---|
| Airport | Katowice Wojciech Korfanty International Airport (EPKT) |
| Time | Latitude | Longitude | Altitude | Speed | Heading |
|---|---|---|---|---|---|
| 2026-05-04 18:59 | 52.16419 | 20.98239 | 358 ft | 0 kts | 24° |
| 2026-05-04 19:19 | 52.16407 | 20.98230 | 367 ft | 3 kts | 24° |
| 2026-05-04 19:19 | 52.16403 | 20.98227 | 366 ft | 0 kts | 24° |
| 2026-05-04 19:20 | 52.16400 | 20.98225 | 359 ft | 0 kts | 24° |
| 2026-05-04 19:20 | 52.16390 | 20.98218 | 362 ft | 3 kts | 31° |
| 2026-05-04 19:20 | 52.16374 | 20.98202 | 360 ft | 3 kts | 30° |
| 2026-05-04 19:21 | 52.16359 | 20.98184 | 358 ft | 3 kts | 41° |
| 2026-05-04 19:21 | 52.16348 | 20.98158 | 361 ft | 3 kts | 83° |
| 2026-05-04 19:21 | 52.16348 | 20.98156 | 361 ft | 0 kts | 85° |
| 2026-05-04 19:24 | 52.16337 | 20.98182 | 364 ft | 9 kts | 136° |
| 2026-05-04 19:24 | 52.16261 | 20.98250 | 364 ft | 3 kts | 204° |
| 2026-05-04 19:24 | 52.16251 | 20.98241 | 356 ft | 0 kts | 215° |
| 2026-05-04 19:25 | 52.16233 | 20.98141 | 362 ft | 19 kts | 270° |
| 2026-05-04 19:25 | 52.16247 | 20.97889 | 364 ft | 22 kts | 289° |
| 2026-05-04 19:25 | 52.16267 | 20.97812 | 365 ft | 0 kts | 294° |
| 2026-05-04 19:27 | 52.16302 | 20.97684 | 365 ft | 42 kts | 294° |
| 2026-05-04 19:27 | 52.16534 | 20.96861 | 365 ft | 118 kts | 295° |
| 2026-05-04 19:27 | 52.16973 | 20.95298 | 387 ft | 184 kts | 296° |
| 2026-05-04 19:28 | 52.17552 | 20.93320 | 1072 ft | 192 kts | 295° |
| 2026-05-04 19:28 | 52.18089 | 20.91190 | 1571 ft | 218 kts | 280° |
| 2026-05-04 19:28 | 52.18044 | 20.88578 | 1991 ft | 245 kts | 260° |
| 2026-05-04 19:28 | 52.17673 | 20.85764 | 2580 ft | 262 kts | 256° |
| 2026-05-04 19:29 | 52.17234 | 20.82823 | 3392 ft | 270 kts | 256° |
| 2026-05-04 19:29 | 52.16796 | 20.79826 | 4307 ft | 274 kts | 256° |
| 2026-05-04 19:29 | 52.16369 | 20.76781 | 5257 ft | 277 kts | 257° |
| 2026-05-04 19:29 | 52.15950 | 20.73695 | 6211 ft | 281 kts | 257° |
| 2026-05-04 19:30 | 52.15429 | 20.70611 | 7151 ft | 285 kts | 244° |
| 2026-05-04 19:30 | 52.14658 | 20.68887 | 7790 ft | 288 kts | 224° |
| 2026-05-04 19:30 | 52.13046 | 20.66915 | 8824 ft | 291 kts | 215° |
| 2026-05-04 19:30 | 52.11338 | 20.65105 | 9838 ft | 295 kts | 215° |
| 2026-05-04 19:31 | 52.09620 | 20.63233 | 10766 ft | 298 kts | 216° |